Time;durP1;ratioP1;P1;durP2;ratioP2;P2;SDS_P1;SDS_P2;PMS_P1;PMS_P2;Temp;Humidity;BMP_temperature;BMP_pressure;BME280_temperature;BME280_humidity;BME280_pressure;Samples;Min_cycle;Max_cycle;Signal;HPM_P1;HPM_P2
2022/10/27 00:00:34;;;;;;;1.50;1.40;;;18.80;59.90;;;;;;6245778;23;20547;-81
2022/10/27 00:03:00;;;;;;;1.30;1.15;;;18.80;59.60;;;;;;6220480;23;20138;-81
2022/10/27 00:05:26;;;;;;;2.45;1.45;;;18.80;59.60;;;;;;6245586;23;20183;-81
2022/10/27 00:07:52;;;;;;;3.22;1.40;;;18.70;59.60;;;;;;6219691;23;20144;-81
2022/10/27 00:10:18;;;;;;;1.75;1.17;;;18.70;59.60;;;;;;6220326;23;20149;-81
2022/10/27 00:12:44;;;;;;;1.85;1.30;;;18.70;59.70;;;;;;6220808;23;20141;-81
2022/10/27 00:15:10;;;;;;;2.13;1.30;;;18.80;59.60;;;;;;6245452;23;20137;-80
2022/10/27 00:17:36;;;;;;;1.50;1.05;;;18.80;59.60;;;;;;6245334;23;20138;-81
2022/10/27 00:20:02;;;;;;;2.08;1.40;;;18.80;59.70;;;;;;6220526;23;20175;-81
2022/10/27 00:22:28;;;;;;;2.03;1.42;;;18.70;59.70;;;;;;6220096;23;20217;-81
2022/10/27 00:24:54;;;;;;;2.58;1.20;;;18.70;59.80;;;;;;6246929;23;20623;-81
2022/10/27 00:27:20;;;;;;;2.47;1.40;;;18.70;59.70;;;;;;6220476;23;20134;-81
2022/10/27 00:29:46;;;;;;;2.53;1.52;;;18.70;59.80;;;;;;6219921;23;20454;-80
2022/10/27 00:32:12;;;;;;;1.75;1.33;;;18.70;59.80;;;;;;6246879;23;20134;-80
2022/10/27 00:34:38;;;;;;;1.63;1.40;;;18.70;59.80;;;;;;6245354;23;20142;-83
2022/10/27 00:37:04;;;;;;;1.65;1.40;;;18.70;59.90;;;;;;6246981;23;20546;-81
2022/10/27 00:39:30;;;;;;;2.38;1.45;;;18.70;59.80;;;;;;6219911;23;20142;-81
2022/10/27 00:41:56;;;;;;;2.22;1.50;;;18.70;59.90;;;;;;6245210;23;20162;-81
2022/10/27 00:44:33;;;;;;;1.33;1.10;;;18.70;59.90;;;;;;6220013;23;20565;-82
2022/10/27 00:47:00;;;;;;;2.60;1.30;;;18.70;60.00;;;;;;6245147;22;20184;-81
2022/10/27 00:49:28;;;;;;;1.52;1.30;;;18.70;60.00;;;;;;6219994;23;20169;-81
2022/10/27 00:51:57;;;;;;;2.88;1.55;;;18.70;60.00;;;;;;6220265;23;20146;-81
2022/10/27 00:54:23;;;;;;;2.25;1.35;;;18.70;60.00;;;;;;6246829;22;20141;-81
2022/10/27 00:56:50;;;;;;;1.90;1.45;;;18.70;59.90;;;;;;6245186;23;20141;-82
2022/10/27 00:59:16;;;;;;;1.52;1.20;;;18.60;59.90;;;;;;6245411;23;20157;-81
2022/10/27 01:01:42;;;;;;;1.45;1.10;;;18.70;60.00;;;;;;6245372;23;20207;-81
2022/10/27 01:04:09;;;;;;;2.88;1.30;;;18.60;60.00;;;;;;6246587;22;20130;-81
2022/10/27 01:06:35;;;;;;;2.60;1.50;;;18.60;60.10;;;;;;6220292;23;20506;-80
2022/10/27 01:09:01;;;;;;;1.10;1.00;;;18.60;60.00;;;;;;6220020;23;20165;-81
2022/10/27 01:11:27;;;;;;;1.30;1.10;;;18.60;60.00;;;;;;6245310;23;20134;-83
2022/10/27 01:13:52;;;;;;;1.80;1.30;;;18.60;60.10;;;;;;6245226;23;20147;-81
2022/10/27 01:16:26;;;;;;;3.17;1.60;;;18.60;60.10;;;;;;6220107;23;20192;-81
2022/10/27 01:19:02;;;;;;;1.33;1.20;;;18.60;60.10;;;;;;6245177;23;20146;-81
2022/10/27 01:21:57;;;;;;;1.33;1.23;;;18.60;60.20;;;;;;6245333;23;20171;-81
2022/10/27 01:24:41;;;;;;;2.88;1.45;;;18.60;60.20;;;;;;6225734;23;20228;-81
2022/10/27 01:27:25;;;;;;;1.40;1.17;;;18.60;60.10;;;;;;6245587;23;20129;-81
2022/10/27 01:30:13;;;;;;;2.00;1.27;;;18.60;60.20;;;;;;6246726;22;20623;-81
2022/10/27 01:33:06;;;;;;;1.40;1.10;;;18.60;60.30;;;;;;6219433;23;20203;-81
2022/10/27 01:35:46;;;;;;;2.30;1.20;;;18.70;60.40;;;;;;6245193;23;20210;-81
2022/10/27 01:38:16;;;;;;;1.25;1.15;;;18.60;60.40;;;;;;6244765;23;20553;-80
2022/10/27 01:40:49;;;;;;;1.63;1.23;;;18.60;60.30;;;;;;6244613;23;20580;-80
2022/10/27 01:43:19;;;;;;;3.92;1.38;;;18.60;60.40;;;;;;6219444;23;20647;-81
2022/10/27 01:45:44;;;;;;;1.73;1.17;;;18.60;60.30;;;;;;6248385;22;20157;-81
2022/10/27 01:48:10;;;;;;;2.35;1.63;;;18.60;60.30;;;;;;6200307;22;20152;-81
2022/10/27 01:50:38;;;;;;;2.10;1.20;;;18.60;60.50;;;;;;6249724;22;20237;-81
2022/10/27 01:53:04;;;;;;;2.92;1.30;;;18.60;60.50;;;;;;6249951;22;20124;-81
2022/10/27 01:55:53;;;;;;;2.63;1.20;;;18.60;60.40;;;;;;6224351;22;20235;-81
2022/10/27 01:58:55;;;;;;;2.72;1.30;;;18.60;60.40;;;;;;6254677;22;20224;-80
2022/10/27 02:01:32;;;;;;;1.55;1.27;;;18.50;60.50;;;;;;6228592;22;20633;-80
2022/10/27 02:04:11;;;;;;;2.63;1.20;;;18.60;60.60;;;;;;6249684;22;20483;-81
2022/10/27 02:06:54;;;;;;;1.77;1.40;;;18.60;60.50;;;;;;6250352;22;20565;-81
2022/10/27 02:09:27;;;;;;;1.15;1.05;;;18.60;60.70;;;;;;6250169;22;20191;-79
2022/10/27 02:11:53;;;;;;;1.48;1.20;;;18.60;60.50;;;;;;6249820;22;20249;-81
2022/10/27 02:14:19;;;;;;;2.22;1.40;;;18.60;60.70;;;;;;6249601;22;20495;-81
2022/10/27 02:16:51;;;;;;;1.55;1.30;;;18.60;60.60;;;;;;6250521;22;20139;-81
2022/10/27 02:19:22;;;;;;;1.20;1.02;;;18.60;60.50;;;;;;6251664;22;20133;-81
2022/10/27 02:21:50;;;;;;;1.30;1.20;;;18.50;60.50;;;;;;6252147;22;20168;-81
2022/10/27 02:24:16;;;;;;;1.73;1.45;;;18.60;60.70;;;;;;6228037;22;20147;-81
2022/10/27 02:26:44;;;;;;;1.40;1.30;;;18.60;60.70;;;;;;6228517;22;20580;-81
2022/10/27 02:29:15;;;;;;;2.22;1.40;;;18.60;60.80;;;;;;6254833;22;20266;-81
2022/10/27 02:31:42;;;;;;;2.42;1.30;;;18.60;60.80;;;;;;6230829;22;20152;-81
2022/10/27 02:34:08;;;;;;;1.48;1.35;;;18.60;60.90;;;;;;6255377;22;20160;-81
2022/10/27 02:36:34;;;;;;;1.60;1.30;;;18.50;60.70;;;;;;6252893;22;20140;-81
2022/10/27 02:39:04;;;;;;;2.05;1.27;;;18.60;60.80;;;;;;6226486;22;20492;-80
2022/10/27 02:41:30;;;;;;;1.88;1.50;;;18.60;60.80;;;;;;6175766;22;20318;-81
2022/10/27 02:43:56;;;;;;;1.75;1.20;;;18.50;60.80;;;;;;6278922;22;20133;-81
2022/10/27 02:46:21;;;;;;;1.85;1.30;;;18.50;60.80;;;;;;6247209;22;20291;-80
2022/10/27 02:48:51;;;;;;;1.42;1.25;;;18.50;60.90;;;;;;6197639;23;20192;-81
2022/10/27 02:51:17;;;;;;;1.88;1.25;;;18.50;60.90;;;;;;6172320;23;20181;-81
2022/10/27 02:53:47;;;;;;;3.22;1.40;;;18.50;60.90;;;;;;6246122;23;20134;-81
2022/10/27 02:56:17;;;;;;;2.25;1.17;;;18.50;60.90;;;;;;6170477;23;20180;-81
2022/10/27 02:58:43;;;;;;;1.55;1.23;;;18.50;60.80;;;;;;6195329;23;20742;-81
2022/10/27 03:01:08;;;;;;;1.90;1.20;;;18.50;60.80;;;;;;6220889;23;20169;-80
2022/10/27 03:03:34;;;;;;;3.60;1.33;;;18.50;60.90;;;;;;6247974;23;20604;-81
2022/10/27 03:06:00;;;;;;;2.53;1.33;;;18.50;60.80;;;;;;6247649;23;20157;-81
2022/10/27 03:08:27;;;;;;;1.35;1.25;;;18.50;60.80;;;;;;6221005;23;20188;-81
2022/10/27 03:10:53;;;;;;;2.15;1.60;;;18.50;60.50;;;;;;6246359;23;20133;-81
2022/10/27 03:13:19;;;;;;;2.25;1.23;;;18.60;60.50;;;;;;6246409;23;20577;-81
2022/10/27 03:15:45;;;;;;;1.20;1.00;;;18.60;60.50;;;;;;6220859;23;20152;-80
2022/10/27 03:18:11;;;;;;;1.23;1.10;;;18.60;60.80;;;;;;6221567;23;20228;-81
2022/10/27 03:20:37;;;;;;;1.85;1.40;;;18.60;60.80;;;;;;6220789;23;20180;-81
2022/10/27 03:23:03;;;;;;;1.30;1.02;;;18.50;60.70;;;;;;6246701;23;20234;-81
2022/10/27 03:25:28;;;;;;;2.90;1.50;;;18.50;60.80;;;;;;6247455;23;20140;-81
2022/10/27 03:27:54;;;;;;;2.47;1.23;;;18.50;60.90;;;;;;6220446;23;20165;-81
2022/10/27 03:30:21;;;;;;;1.60;1.13;;;18.60;61.00;;;;;;6221164;23;20145;-81
2022/10/27 03:32:47;;;;;;;2.92;1.30;;;18.60;60.80;;;;;;6220244;23;20145;-81
2022/10/27 03:35:14;;;;;;;1.40;1.10;;;18.50;60.90;;;;;;6245693;23;20169;-81
2022/10/27 03:37:40;;;;;;;4.47;1.48;;;18.50;61.20;;;;;;6220930;23;20147;-81
2022/10/27 03:40:06;;;;;;;1.50;1.40;;;18.50;61.10;;;;;;6245921;23;20149;-81
2022/10/27 03:42:32;;;;;;;1.77;1.30;;;18.60;61.00;;;;;;6245463;23;20136;-81
2022/10/27 03:44:59;;;;;;;1.10;1.00;;;18.50;61.00;;;;;;6220353;23;20220;-81
2022/10/27 03:47:25;;;;;;;2.25;1.10;;;18.50;60.80;;;;;;6245383;22;20637;-81
2022/10/27 03:49:51;;;;;;;1.90;1.45;;;18.50;61.00;;;;;;6246052;23;20133;-81
2022/10/27 03:52:17;;;;;;;1.95;1.40;;;18.50;61.00;;;;;;6220202;23;20146;-81
2022/10/27 03:54:43;;;;;;;1.75;1.17;;;18.50;61.10;;;;;;6245794;23;20192;-81
2022/10/27 03:57:11;;;;;;;1.67;1.42;;;18.50;61.00;;;;;;6220812;23;20489;-82
2022/10/27 03:59:41;;;;;;;1.63;1.10;;;18.50;61.10;;;;;;6245602;23;20130;-81
2022/10/27 04:02:08;;;;;;;1.20;1.10;;;18.60;61.20;;;;;;6145273;23;20184;-81
2022/10/27 04:04:33;;;;;;;1.52;1.30;;;18.50;60.90;;;;;;6245668;23;20209;-81
2022/10/27 04:06:59;;;;;;;2.28;1.17;;;18.50;61.20;;;;;;6246033;23;20478;-81
2022/10/27 04:09:25;;;;;;;1.30;1.20;;;18.50;61.10;;;;;;6245789;23;20183;-81
2022/10/27 04:11:51;;;;;;;1.48;1.20;;;18.50;60.90;;;;;;6220556;23;20467;-81
2022/10/27 04:14:17;;;;;;;1.85;1.20;;;18.50;60.90;;;;;;6221650;23;20137;-81
2022/10/27 04:16:50;;;;;;;2.05;1.30;;;18.50;61.10;;;;;;6219986;23;20244;-81
2022/10/27 04:19:17;;;;;;;2.35;1.20;;;18.50;60.90;;;;;;6246952;22;20553;-81
2022/10/27 04:21:44;;;;;;;1.70;1.40;;;18.50;61.10;;;;;;6220038;23;20707;-81
2022/10/27 04:24:10;;;;;;;1.48;1.27;;;18.50;60.90;;;;;;6220020;23;20146;-81
2022/10/27 04:26:36;;;;;;;2.45;1.45;;;18.50;60.80;;;;;;6220326;23;20196;-81
2022/10/27 04:29:02;;;;;;;1.63;1.30;;;18.50;60.80;;;;;;6220755;23;20568;-81
2022/10/27 04:31:28;;;;;;;1.30;1.10;;;18.50;60.80;;;;;;6245320;23;20140;-81
2022/10/27 04:33:53;;;;;;;1.73;1.17;;;18.60;60.90;;;;;;6220392;23;20636;-81
2022/10/27 04:36:19;;;;;;;1.10;1.00;;;18.50;61.00;;;;;;6245752;23;20157;-80
2022/10/27 04:38:48;;;;;;;2.58;1.17;;;18.50;61.10;;;;;;6194898;23;20153;-81
2022/10/27 04:41:17;;;;;;;2.03;1.20;;;18.50;61.20;;;;;;6220698;23;20188;-82
2022/10/27 04:43:50;;;;;;;1.45;1.10;;;18.50;61.00;;;;;;6167863;23;20236;-81
2022/10/27 04:46:16;;;;;;;1.42;1.27;;;18.50;61.00;;;;;;6169994;23;20193;-81
2022/10/27 04:48:45;;;;;;;1.23;1.10;;;18.50;61.20;;;;;;6244519;23;20160;-81
2022/10/27 04:51:14;;;;;;;1.45;1.25;;;18.50;61.20;;;;;;6168001;23;20188;-80
2022/10/27 04:53:43;;;;;;;1.98;1.30;;;18.50;61.30;;;;;;6167791;23;20488;-80
2022/10/27 04:56:12;;;;;;;2.40;1.40;;;18.50;61.40;;;;;;6193399;23;20153;-82
2022/10/27 04:58:40;;;;;;;1.40;1.25;;;18.50;61.60;;;;;;6169104;23;20153;-80
2022/10/27 05:01:11;;;;;;;2.58;1.15;;;18.50;61.50;;;;;;6169350;23;20184;-80
2022/10/27 05:03:40;;;;;;;1.92;1.17;;;18.50;61.10;;;;;;6169395;23;20664;-81
2022/10/27 05:06:08;;;;;;;2.03;1.17;;;18.50;61.00;;;;;;6144302;23;20207;-81
2022/10/27 05:08:37;;;;;;;1.70;1.10;;;18.50;61.20;;;;;;6193671;23;20199;-81
2022/10/27 05:11:05;;;;;;;1.88;1.38;;;18.50;61.30;;;;;;6169091;23;20535;-82
2022/10/27 05:13:33;;;;;;;1.70;0.98;;;18.40;60.90;;;;;;6193702;23;20620;-81
2022/10/27 05:16:02;;;;;;;2.60;1.20;;;18.50;60.50;;;;;;6144484;23;20611;-81
2022/10/27 05:18:30;;;;;;;1.73;1.20;;;18.60;60.50;;;;;;6194069;23;20181;-80
2022/10/27 05:20:58;;;;;;;1.65;1.30;;;18.60;60.40;;;;;;6168891;23;20577;-80
2022/10/27 05:23:26;;;;;;;1.40;1.30;;;18.60;60.30;;;;;;6169201;23;20660;-80
2022/10/27 05:25:54;;;;;;;1.40;1.23;;;18.60;60.10;;;;;;6144879;23;20153;-81
2022/10/27 05:28:22;;;;;;;1.73;1.30;;;18.60;60.10;;;;;;6168920;23;20578;-81
2022/10/27 05:30:50;;;;;;;1.45;1.33;;;18.60;60.00;;;;;;6193954;23;20215;-81
2022/10/27 05:33:20;;;;;;;3.22;1.10;;;18.60;60.00;;;;;;6169400;23;20157;-81
2022/10/27 05:35:48;;;;;;;1.55;1.30;;;18.60;60.00;;;;;;6169166;23;20180;-81
2022/10/27 05:38:16;;;;;;;1.20;1.10;;;18.70;60.00;;;;;;6145241;23;20565;-81
2022/10/27 05:40:43;;;;;;;1.15;1.08;;;18.60;60.00;;;;;;6168859;23;20176;-81
2022/10/27 05:43:10;;;;;;;1.35;1.20;;;18.70;60.00;;;;;;6169238;23;20149;-81
2022/10/27 05:45:38;;;;;;;1.25;1.15;;;18.70;60.00;;;;;;6169031;23;20236;-80
2022/10/27 05:48:06;;;;;;;1.17;1.08;;;18.70;60.00;;;;;;6163492;23;20656;-82
2022/10/27 05:50:33;;;;;;;1.25;1.10;;;18.70;59.90;;;;;;6139628;23;20161;-81
2022/10/27 05:53:01;;;;;;;1.25;1.10;;;18.70;59.80;;;;;;6188629;23;20150;-81
2022/10/27 05:55:28;;;;;;;1.40;1.30;;;18.70;59.80;;;;;;6163941;23;20165;-80
2022/10/27 05:57:57;;;;;;;1.30;1.20;;;18.70;59.80;;;;;;6213185;23;20154;-81
2022/10/27 06:00:25;;;;;;;1.70;1.60;;;18.70;59.80;;;;;;6165358;23;20185;-81
2022/10/27 06:02:54;;;;;;;1.35;1.25;;;18.80;59.80;;;;;;6189506;23;20188;-81
2022/10/27 06:05:21;;;;;;;1.75;1.45;;;18.70;59.60;;;;;;6158923;23;20186;-81
2022/10/27 06:07:48;;;;;;;1.38;1.27;;;18.80;59.50;;;;;;6134541;23;20495;-80
2022/10/27 06:10:14;;;;;;;1.15;1.05;;;18.80;59.50;;;;;;6134862;23;20158;-82
2022/10/27 06:12:47;;;;;;;1.23;1.13;;;18.80;59.40;;;;;;6158750;23;20150;-81
2022/10/27 06:15:13;;;;;;;1.33;1.15;;;18.80;59.10;;;;;;6133485;23;20453;-80
2022/10/27 06:17:43;;;;;;;1.70;1.33;;;18.80;59.20;;;;;;6133358;23;20159;-80
2022/10/27 06:20:13;;;;;;;1.50;1.40;;;18.80;59.30;;;;;;6084768;23;20603;-83
2022/10/27 06:22:39;;;;;;;1.35;1.20;;;18.90;59.20;;;;;;6109053;23;20262;-81
2022/10/27 06:25:13;;;;;;;1.60;1.33;;;18.80;59.20;;;;;;6158454;23;20147;-80
2022/10/27 06:27:39;;;;;;;1.73;1.30;;;18.80;59.20;;;;;;6133516;23;20224;-81
2022/10/27 06:30:06;;;;;;;1.45;1.35;;;18.80;59.10;;;;;;6158295;23;20607;-81
2022/10/27 06:32:35;;;;;;;1.40;1.30;;;18.80;59.10;;;;;;6159905;23;20146;-82
2022/10/27 06:35:01;;;;;;;1.38;1.27;;;18.80;59.10;;;;;;6159303;23;20159;-81
2022/10/27 06:37:38;;;;;;;1.33;1.23;;;18.80;59.10;;;;;;6242585;23;20165;-80
2022/10/27 06:40:12;;;;;;;2.50;1.38;;;18.80;59.00;;;;;;6219763;23;20141;-81
2022/10/27 06:42:38;;;;;;;1.42;1.33;;;18.90;59.00;;;;;;6144328;23;20157;-81
2022/10/27 06:45:05;;;;;;;2.58;1.38;;;18.80;58.80;;;;;;6196017;23;20145;-81
2022/10/27 06:47:31;;;;;;;2.30;1.38;;;18.80;59.00;;;;;;6242129;22;20195;-81
2022/10/27 06:50:00;;;;;;;1.70;1.40;;;18.90;59.00;;;;;;6224343;23;20191;-82
2022/10/27 06:52:30;;;;;;;1.67;1.52;;;18.90;59.00;;;;;;6224690;23;20153;-81
2022/10/27 06:55:03;;;;;;;1.55;1.45;;;18.80;58.80;;;;;;6173767;23;20207;-82
2022/10/27 06:57:29;;;;;;;1.48;1.38;;;18.90;58.90;;;;;;6174900;23;20157;-82
2022/10/27 06:59:56;;;;;;;1.90;1.70;;;18.90;58.90;;;;;;6164920;23;20165;-81
2022/10/27 07:02:31;;;;;;;1.98;1.30;;;18.90;58.90;;;;;;6166845;23;20190;-82
2022/10/27 07:05:02;;;;;;;1.38;1.27;;;18.90;59.00;;;;;;6060304;23;20247;-81
2022/10/27 07:07:35;;;;;;;2.63;1.63;;;18.80;58.90;;;;;;6060380;23;20203;-81
2022/10/27 07:10:01;;;;;;;1.52;1.42;;;18.90;59.10;;;;;;6062885;23;20152;-81
2022/10/27 07:12:27;;;;;;;2.25;1.48;;;18.80;59.00;;;;;;6107939;23;20167;-83
2022/10/27 07:14:53;;;;;;;1.70;1.60;;;18.90;59.20;;;;;;6107015;23;20156;-82
2022/10/27 07:17:19;;;;;;;2.20;1.58;;;18.90;59.20;;;;;;6106033;23;20608;-82
2022/10/27 07:19:45;;;;;;;1.65;1.55;;;18.80;59.10;;;;;;6107751;23;20207;-80
2022/10/27 07:22:16;;;;;;;1.73;1.63;;;18.90;59.10;;;;;;6103760;23;20232;-82
2022/10/27 07:24:51;;;;;;;1.80;1.70;;;18.90;59.00;;;;;;6081904;23;20152;-82
2022/10/27 07:27:17;;;;;;;2.15;1.95;;;18.90;59.10;;;;;;6104730;23;20135;-82
2022/10/27 07:29:48;;;;;;;2.00;1.80;;;19.00;58.90;;;;;;6106551;23;20199;-81
2022/10/27 07:32:14;;;;;;;1.85;1.75;;;19.00;59.10;;;;;;6190083;23;20166;-82
2022/10/27 07:34:48;;;;;;;3.88;1.92;;;19.00;59.00;;;;;;6189310;23;20533;-83
2022/10/27 07:37:44;;;;;;;2.10;1.90;;;19.00;58.80;;;;;;6246975;23;20214;-83
2022/10/27 07:40:11;;;;;;;2.00;1.80;;;19.00;58.90;;;;;;6198800;23;20177;-82
2022/10/27 07:42:46;;;;;;;2.00;1.80;;;19.00;59.00;;;;;;6199563;23;20592;-82
2022/10/27 07:45:32;;;;;;;2.35;2.15;;;19.00;58.90;;;;;;6205915;23;20576;-89
2022/10/27 07:48:21;;;;;;;2.30;2.10;;;19.00;59.10;;;;;;6109495;23;20738;-85
2022/10/27 07:51:09;;;;;;;2.28;1.95;;;19.00;59.10;;;;;;6070969;23;20161;-85
2022/10/27 07:53:37;;;;;;;2.13;1.90;;;18.90;59.20;;;;;;6022666;23;20154;-86
2022/10/27 07:56:09;;;;;;;2.13;1.92;;;18.90;59.20;;;;;;6017159;23;20176;-85
2022/10/27 07:58:47;;;;;;;2.33;2.13;;;19.00;59.20;;;;;;5998105;24;20150;-86
2022/10/27 08:01:32;;;;;;;2.47;2.28;;;19.00;59.30;;;;;;5974793;24;20250;-82
2022/10/27 08:04:22;;;;;;;2.38;2.00;;;19.00;59.20;;;;;;5952591;24;20155;-86
2022/10/27 08:07:25;;;;;;;2.42;2.22;;;19.00;59.30;;;;;;5951590;24;20172;-83
2022/10/27 08:10:14;;;;;;;2.55;2.35;;;19.00;59.50;;;;;;5946561;24;20143;-85
2022/10/27 08:12:44;;;;;;;2.97;2.20;;;19.00;59.40;;;;;;5852825;24;20181;-86
2022/10/27 08:15:36;;;;;;;;;;;;;;;;;;;;;
2022/10/27 08:18:07;;;;;;;2.40;2.20;;;19.00;59.20;;;;;;5844728;24;20187;-84
2022/10/27 08:20:49;;;;;;;2.90;2.60;;;19.20;59.40;;;;;;5839645;24;20307;-85
2022/10/27 08:23:41;;;;;;;;;;;;;;;;;;;;;
2022/10/27 08:26:43;;;;;;;2.70;2.50;;;19.10;59.60;;;;;;5864448;24;20157;-86
2022/10/27 08:29:09;;;;;;;2.38;2.10;;;19.10;59.60;;;;;;5983210;23;20193;-86
2022/10/27 08:32:07;;;;;;;;;;;;;;;;;;;;;
2022/10/27 08:35:12;;;;;;;2.60;2.40;;;19.10;59.30;;;;;;6038653;23;20161;-87
2022/10/27 08:37:51;;;;;;;3.03;2.60;;;19.20;59.60;;;;;;6034940;23;20158;-85
2022/10/27 08:40:18;;;;;;;2.75;2.50;;;19.20;59.80;;;;;;6004408;23;20158;-85
2022/10/27 08:43:07;;;;;;;2.60;2.35;;;19.20;59.80;;;;;;6054508;23;20229;-85
2022/10/27 08:45:51;;;;;;;2.60;2.40;;;19.20;59.90;;;;;;6027129;23;20186;-84
2022/10/27 08:48:40;;;;;;;3.30;2.70;;;19.10;59.70;;;;;;6071404;23;20164;-85
2022/10/27 08:51:14;;;;;;;4.85;2.53;;;19.20;60.30;;;;;;6142491;23;20564;-84
2022/10/27 08:53:47;;;;;;;4.22;2.60;;;19.10;60.10;;;;;;6140178;23;20155;-82
2022/10/27 08:56:14;;;;;;;2.50;2.30;;;19.20;60.10;;;;;;6142047;23;20488;-83
2022/10/27 08:58:46;;;;;;;2.90;2.60;;;19.20;60.30;;;;;;6158798;23;20181;-83
2022/10/27 09:01:20;;;;;;;3.17;2.85;;;19.10;60.30;;;;;;6088188;23;20182;-85
2022/10/27 09:04:20;;;;;;;4.20;2.60;;;19.20;60.50;;;;;;6160945;23;20151;-82
2022/10/27 09:06:55;;;;;;;3.78;2.72;;;19.20;60.60;;;;;;6139867;23;20152;-83
2022/10/27 09:10:00;;;;;;;3.30;2.97;;;19.20;60.80;;;;;;6163867;23;20147;-83
2022/10/27 09:12:55;;;;;;;3.28;2.60;;;19.10;60.60;;;;;;6221244;23;20158;-83
2022/10/27 09:15:38;;;;;;;4.28;2.90;;;19.10;60.60;;;;;;6221554;23;20150;-86
2022/10/27 09:18:15;;;;;;;5.15;3.10;;;19.20;61.00;;;;;;6123685;23;20185;-85
2022/10/27 09:20:47;;;;;;;4.72;2.78;;;19.20;61.00;;;;;;6167345;23;20187;-83
2022/10/27 09:23:16;;;;;;;3.30;2.70;;;19.10;61.10;;;;;;6218604;23;20134;-84
2022/10/27 09:25:50;;;;;;;4.18;2.80;;;19.20;61.30;;;;;;6190270;23;20153;-83
2022/10/27 09:28:26;;;;;;;3.92;2.75;;;19.20;61.30;;;;;;6145057;23;20586;-84
2022/10/27 09:30:56;;;;;;;4.05;3.13;;;19.20;61.40;;;;;;6220272;23;20212;-83
2022/10/27 09:33:27;;;;;;;3.20;2.78;;;19.10;61.40;;;;;;6142422;23;20154;-84
2022/10/27 09:35:53;;;;;;;3.97;2.92;;;19.10;61.50;;;;;;6217443;23;20578;-83
2022/10/27 09:38:22;;;;;;;4.22;3.35;;;19.10;61.60;;;;;;6220117;23;20141;-84
2022/10/27 09:40:48;;;;;;;4.18;3.25;;;19.10;61.70;;;;;;6195643;23;20177;-83
2022/10/27 09:43:14;;;;;;;4.57;3.00;;;19.10;61.70;;;;;;6206452;23;20153;-84
2022/10/27 09:45:49;;;;;;;3.35;2.72;;;19.10;61.80;;;;;;6202575;23;20185;-82
2022/10/27 09:48:19;;;;;;;6.00;3.33;;;19.10;61.80;;;;;;6188764;22;20184;-83
2022/10/27 09:50:57;;;;;;;3.63;3.13;;;19.10;61.90;;;;;;6263481;22;20140;-82
2022/10/27 09:53:39;;;;;;;5.45;3.47;;;19.10;62.00;;;;;;6264042;22;20147;-83
2022/10/27 09:56:13;;;;;;;4.32;3.05;;;19.10;62.10;;;;;;6237906;22;20175;-82
2022/10/27 09:58:55;;;;;;;6.35;3.30;;;19.00;62.20;;;;;;6164884;22;20488;-82
2022/10/27 10:01:22;;;;;;;3.35;2.85;;;19.10;63.10;;;;;;6219073;22;20187;-82
2022/10/27 10:04:27;;;;;;;6.07;3.20;;;19.10;62.30;;;;;;6263839;22;20151;-82
2022/10/27 10:07:01;;;;;;;4.72;3.15;;;19.10;62.30;;;;;;6225223;22;20152;-83
2022/10/27 10:09:36;;;;;;;5.70;3.50;;;19.00;62.30;;;;;;6188779;22;20594;-82
2022/10/27 10:12:19;;;;;;;4.43;3.50;;;19.10;62.50;;;;;;6188899;22;20285;-82
2022/10/27 10:14:45;;;;;;;5.18;3.38;;;19.10;62.60;;;;;;6165355;22;20245;-82
2022/10/27 10:17:29;;;;;;;4.28;3.53;;;19.10;62.70;;;;;;6290973;22;20145;-83
2022/10/27 10:19:55;;;;;;;3.30;2.97;;;19.00;62.70;;;;;;6264537;22;20133;-81
2022/10/27 10:22:26;;;;;;;3.97;3.25;;;19.10;62.80;;;;;;6263096;22;20243;-82
2022/10/27 10:24:52;;;;;;;3.75;3.08;;;19.10;62.80;;;;;;6237309;22;20145;-82
2022/10/27 10:27:27;;;;;;;3.72;3.42;;;19.10;62.90;;;;;;6238397;22;20145;-82
2022/10/27 10:29:58;;;;;;;4.35;3.80;;;19.10;62.80;;;;;;6263866;22;20124;-82
2022/10/27 10:32:30;;;;;;;5.65;3.78;;;19.10;63.00;;;;;;6212116;22;20187;-82
2022/10/27 10:34:59;;;;;;;4.20;2.95;;;19.10;63.80;;;;;;6239161;22;20149;-82
2022/10/27 10:37:48;;;;;;;5.18;3.30;;;19.00;63.00;;;;;;6262084;22;20149;-81
2022/10/27 10:40:30;;;;;;;5.18;3.47;;;19.10;63.00;;;;;;6185865;22;20205;-82
2022/10/27 10:43:01;;;;;;;5.30;3.58;;;19.00;63.00;;;;;;6258955;22;20152;-82
2022/10/27 10:45:35;;;;;;;7.65;3.85;;;19.00;63.00;;;;;;6261396;22;20151;-81
2022/10/27 10:48:08;;;;;;;4.78;3.55;;;19.00;63.00;;;;;;6199143;23;20277;-83
2022/10/27 10:50:49;;;;;;;6.97;3.53;;;19.00;63.10;;;;;;6202375;23;20158;-82
2022/10/27 10:53:30;;;;;;;4.05;3.08;;;19.00;63.00;;;;;;6230308;23;20158;-83
2022/10/27 10:56:06;;;;;;;3.95;3.25;;;19.00;63.10;;;;;;6206456;23;20181;-82
2022/10/27 10:58:48;;;;;;;8.43;3.97;;;19.00;63.10;;;;;;6180852;23;20157;-82
2022/10/27 11:01:24;;;;;;;;;;;;;;;;;;;;;
2022/10/27 11:03:51;;;;;;;4.00;3.53;;;19.00;63.20;;;;;;6179143;23;20181;-83
2022/10/27 11:06:25;;;;;;;5.38;3.10;;;19.10;63.30;;;;;;6228522;23;20189;-82
2022/10/27 11:08:59;;;;;;;3.95;3.40;;;19.10;63.20;;;;;;6177099;23;20177;-82
2022/10/27 11:11:43;;;;;;;6.00;3.40;;;19.10;63.20;;;;;;6174657;23;20328;-82
2022/10/27 11:14:18;;;;;;;4.68;3.28;;;19.10;63.20;;;;;;6134204;23;20153;-82
2022/10/27 11:16:57;;;;;;;4.13;3.25;;;19.10;63.20;;;;;;6117554;23;20188;-82
2022/10/27 11:19:28;;;;;;;3.47;3.15;;;19.10;63.20;;;;;;6119317;23;20159;-83
2022/10/27 11:22:03;;;;;;;4.78;3.50;;;19.10;63.30;;;;;;6089510;23;20184;-81
2022/10/27 11:24:46;;;;;;;4.95;3.70;;;19.10;63.30;;;;;;6116637;23;20155;-80
2022/10/27 11:27:19;;;;;;;4.05;3.25;;;19.10;63.30;;;;;;6056907;23;20163;-82
2022/10/27 11:33:35;;;;;;;4.60;3.58;;;19.10;63.40;;;;;;6049385;23;20158;-82
2022/10/27 11:43:39;;;;;;;;;;;;;;;;;;;;;
2022/10/27 11:50:27;;;;;;;5.32;3.53;;;19.10;63.60;;;;;;5972654;24;20175;-83
2022/10/27 11:57:19;;;;;;;;;;;;;;;;;;;;;
2022/10/27 12:00:30;;;;;;;;;;;;;;;;;;;;;
2022/10/27 12:04:02;;;;;;;;;;;;;;;;;;;;;
2022/10/27 12:10:18;;;;;;;4.60;3.13;;;19.20;63.40;;;;;;5814769;24;20164;-83
2022/10/27 12:13:02;;;;;;;5.63;3.22;;;19.30;63.40;;;;;;5816433;24;20160;-84
2022/10/27 12:15:39;;;;;;;3.95;3.25;;;19.30;63.40;;;;;;5778024;24;20637;-84
2022/10/27 12:18:30;;;;;;;4.40;3.45;;;19.20;63.30;;;;;;5801867;24;20213;-83
2022/10/27 12:21:03;;;;;;;3.88;3.30;;;19.20;63.40;;;;;;5800882;24;20267;-84
2022/10/27 12:23:33;;;;;;;6.25;3.28;;;19.30;63.60;;;;;;5802470;24;20163;-83
2022/10/27 12:26:28;;;;;;;5.45;3.78;;;19.30;64.20;;;;;;5804253;24;20160;-83
2022/10/27 12:29:18;;;;;;;4.32;3.60;;;19.30;63.40;;;;;;5807412;24;20170;-85
2022/10/27 12:32:09;;;;;;;5.28;3.25;;;19.20;63.40;;;;;;5715692;25;20194;-85
2022/10/27 12:39:11;;;;;;;;;;;;;;;;;;;;;
2022/10/27 12:41:44;;;;;;;;;;;;;;;;;;;;;
2022/10/27 12:44:44;;;;;;;5.60;3.72;;;19.20;63.80;;;;;;6001869;23;20155;-83
2022/10/27 12:47:53;;;;;;;4.28;3.40;;;19.10;64.60;;;;;;5940602;24;20200;-84
2022/10/27 12:51:10;;;;;;;;;;;;;;;;;;;;;
2022/10/27 12:54:21;;;;;;;5.45;3.38;;;19.20;63.80;;;;;;5833428;24;20163;-84
2022/10/27 12:59:57;;;;;;;5.60;3.17;;;19.20;63.90;;;;;;6273955;22;20213;-85
2022/10/27 13:02:36;;;;;;;4.68;3.20;;;19.20;64.00;;;;;;6295387;22;20217;-83
2022/10/27 13:05:23;;;;;;;4.53;3.55;;;19.20;64.00;;;;;;6271388;22;20458;-83
2022/10/27 13:08:11;;;;;;;4.78;3.08;;;19.20;64.00;;;;;;6294396;22;20162;-83
2022/10/27 13:10:54;;;;;;;7.00;4.05;;;19.20;64.00;;;;;;6245717;22;20152;-83
2022/10/27 13:13:40;;;;;;;4.78;3.33;;;19.20;64.10;;;;;;6294997;22;20147;-83
2022/10/27 13:16:44;;;;;;;9.82;3.78;;;19.20;64.00;;;;;;6234171;23;20149;-84
2022/10/27 13:19:23;;;;;;;4.00;3.30;;;19.20;64.30;;;;;;6232610;23;20159;-84
2022/10/27 13:21:57;;;;;;;5.15;3.10;;;19.20;64.10;;;;;;6231848;23;20237;-82
2022/10/27 13:25:12;;;;;;;4.60;3.60;;;19.20;64.10;;;;;;6172822;23;20154;-83
2022/10/27 13:28:05;;;;;;;7.22;3.33;;;19.20;64.20;;;;;;6102220;23;20148;-83
2022/10/27 13:30:40;;;;;;;5.18;3.10;;;19.20;64.20;;;;;;6111366;23;20196;-83
2022/10/27 13:33:41;;;;;;;3.92;3.47;;;19.20;64.20;;;;;;6058416;23;20155;-84
2022/10/27 13:36:32;;;;;;;4.65;3.20;;;19.20;64.20;;;;;;6005130;23;20164;-84
2022/10/27 13:42:35;;;;;;;4.78;3.00;;;19.30;64.90;;;;;;5969866;24;20305;-83
2022/10/27 13:45:44;;;;;;;5.88;3.40;;;19.30;64.60;;;;;;5940931;24;20187;-84
2022/10/27 13:48:43;;;;;;;5.32;2.90;;;19.20;64.30;;;;;;5978152;23;20161;-84
2022/10/27 13:51:43;;;;;;;4.43;3.20;;;19.30;64.40;;;;;;6022138;23;20150;-86
2022/10/27 13:54:44;;;;;;;4.70;3.30;;;19.30;64.50;;;;;;5998015;23;20218;-84
2022/10/27 13:58:04;;;;;;;5.68;3.05;;;19.40;64.60;;;;;;6055170;23;20187;-84
2022/10/27 14:01:36;;;;;;;3.97;3.22;;;19.30;64.60;;;;;;6115950;23;20335;-83
2022/10/27 14:04:40;;;;;;;4.85;3.05;;;19.40;64.60;;;;;;6022550;23;20185;-84
2022/10/27 14:07:41;;;;;;;3.78;3.15;;;19.30;64.50;;;;;;6139058;23;20196;-83
2022/10/27 14:10:13;;;;;;;4.78;3.42;;;19.30;64.60;;;;;;6087928;23;20163;-83
2022/10/27 14:12:46;;;;;;;6.72;3.42;;;19.30;64.60;;;;;;6066377;23;20179;-82